Sawyer County Airport
KHYR : rendu visible

Aérodrome :











RETROUVEZ-NOUS SUR...

 
LOGIN :

S'inscrire | Disclaimer

   EN    FR    IT 

 









Légende :    VFR   VFR Marginal   IFR   IFR Intensif   IFR Très Intensif
Visi : 
Plafond : 
>= 8 km
>= 3000ft
5 à 8 km
1000 à 3000 ft
1500m à 5 km
500 à 1000 ft
800 à 1500m
200 à 500 ft
< 800m
< 200 ft
Symboles :   Orages  Brouillard  Fortes neiges  Fortes précipitations  Vent > 20 kt






- Altitude de l'aérodrome : 1216 ft


KHYR - Sawyer County

DERNIER METAR :
  • 121853Z AUTO 18008KT 10SM CLR M10/M21 A3034 RMK AO2 SLP306 T11001206

METARs EXPIRÉS :
  • 121753Z AUTO 10SM CLR M11/M20 A3038 RMK AO2 SLP319 I6000 T11111200 11111 21200 58027
  • 121653Z AUTO 20008KT 10SM CLR M12/M19 A3041 RMK AO2 SLP331 T11221194

TAF KHYR
Valide du 12 à 18h jusqu'au 13 à 18h UTC


121723Z 1218/1318 21006KT P6SM SKC
FM130300 18009G18KT P6SM BKN150
FM131200 18007KT 2SM -SN OVC026



MET'MAP, la Météo Aéronautique d'un coup d'oeil ! - Copyright ORBIFLY Décembre 2007 - Disclaimer

ORBIFLY MET'MAP TEAM :

Programmation & Développement : Alexandra Zaïnal
Conception & Développement : Baudouin d'Aumeries
Co-Programmation & Développement : Marc-Olivier Méhu
Soutien technique & logistique : Manuel Goepfert

Contact : metmap@orbifly.com




SOURCES & CREDITS :

   NOAA       Earth
Advisory